sensor_id;sensor_type;location;lat;lon;timestamp;pressure;altitude;pressure_sealevel;temperature;humidity
75513;BME280;64090;49.770;18.760;2023-04-06T00:01:04;97943.75;;;-4.75;67.22
75513;BME280;64090;49.770;18.760;2023-04-06T00:04:07;97944.93;;;-4.82;67.57
75513;BME280;64090;49.770;18.760;2023-04-06T00:07:10;97946.33;;;-4.90;67.79
75513;BME280;64090;49.770;18.760;2023-04-06T00:10:13;97944.67;;;-4.96;67.44
75513;BME280;64090;49.770;18.760;2023-04-06T00:13:16;97940.76;;;-5.00;68.30
75513;BME280;64090;49.770;18.760;2023-04-06T00:16:19;97944.29;;;-4.98;69.51
75513;BME280;64090;49.770;18.760;2023-04-06T00:19:26;97945.42;;;-5.02;68.04
75513;BME280;64090;49.770;18.760;2023-04-06T00:22:29;97948.75;;;-5.08;68.20
75513;BME280;64090;49.770;18.760;2023-04-06T00:25:32;97946.76;;;-5.14;68.66
75513;BME280;64090;49.770;18.760;2023-04-06T00:28:35;97945.02;;;-5.15;76.94
75513;BME280;64090;49.770;18.760;2023-04-06T00:31:38;97939.61;;;-5.16;71.46
75513;BME280;64090;49.770;18.760;2023-04-06T00:34:41;97932.08;;;-5.14;76.90
75513;BME280;64090;49.770;18.760;2023-04-06T00:37:46;97930.77;;;-5.16;72.17
75513;BME280;64090;49.770;18.760;2023-04-06T00:40:49;97928.20;;;-5.18;71.58
75513;BME280;64090;49.770;18.760;2023-04-06T00:43:53;97928.80;;;-5.22;70.20
75513;BME280;64090;49.770;18.760;2023-04-06T00:46:56;97927.31;;;-5.26;69.65
75513;BME280;64090;49.770;18.760;2023-04-06T00:49:59;97927.41;;;-5.30;69.60
75513;BME280;64090;49.770;18.760;2023-04-06T00:53:02;97921.91;;;-5.33;69.05
75513;BME280;64090;49.770;18.760;2023-04-06T00:56:05;97923.75;;;-5.35;69.38
75513;BME280;64090;49.770;18.760;2023-04-06T00:59:09;97924.50;;;-5.36;68.52
75513;BME280;64090;49.770;18.760;2023-04-06T01:02:12;97927.83;;;-5.36;68.78
75513;BME280;64090;49.770;18.760;2023-04-06T01:05:15;97922.70;;;-5.37;68.95
75513;BME280;64090;49.770;18.760;2023-04-06T01:08:18;97919.15;;;-5.39;69.05
75513;BME280;64090;49.770;18.760;2023-04-06T01:11:21;97925.54;;;-5.41;69.06
75513;BME280;64090;49.770;18.760;2023-04-06T01:14:25;97920.77;;;-5.45;68.85
75513;BME280;64090;49.770;18.760;2023-04-06T01:17:28;97922.18;;;-5.48;68.50
75513;BME280;64090;49.770;18.760;2023-04-06T01:20:31;97921.02;;;-5.51;69.03
75513;BME280;64090;49.770;18.760;2023-04-06T01:23:35;97922.09;;;-5.54;69.19
75513;BME280;64090;49.770;18.760;2023-04-06T01:26:38;97917.31;;;-5.55;69.83
75513;BME280;64090;49.770;18.760;2023-04-06T01:29:41;97920.81;;;-5.56;70.62
75513;BME280;64090;49.770;18.760;2023-04-06T01:32:45;97919.38;;;-5.60;70.39
75513;BME280;64090;49.770;18.760;2023-04-06T01:35:48;97922.05;;;-5.65;69.71
75513;BME280;64090;49.770;18.760;2023-04-06T01:38:51;97924.42;;;-5.70;69.57
75513;BME280;64090;49.770;18.760;2023-04-06T01:41:55;97921.42;;;-5.74;70.00
75513;BME280;64090;49.770;18.760;2023-04-06T01:44:58;97920.26;;;-5.77;70.18
75513;BME280;64090;49.770;18.760;2023-04-06T01:48:01;97917.30;;;-5.79;69.47
75513;BME280;64090;49.770;18.760;2023-04-06T01:51:04;97917.48;;;-5.80;69.16
75513;BME280;64090;49.770;18.760;2023-04-06T01:54:07;97922.94;;;-5.78;68.81
75513;BME280;64090;49.770;18.760;2023-04-06T01:57:10;97924.02;;;-5.76;69.84
75513;BME280;64090;49.770;18.760;2023-04-06T02:00:14;97921.90;;;-5.76;70.05
75513;BME280;64090;49.770;18.760;2023-04-06T02:03:17;97924.30;;;-5.75;70.16
75513;BME280;64090;49.770;18.760;2023-04-06T02:06:20;97923.55;;;-5.74;69.56
75513;BME280;64090;49.770;18.760;2023-04-06T02:09:23;97915.70;;;-5.73;70.37
75513;BME280;64090;49.770;18.760;2023-04-06T02:12:26;97914.77;;;-5.72;71.04
75513;BME280;64090;49.770;18.760;2023-04-06T02:15:29;97910.36;;;-5.73;70.70
75513;BME280;64090;49.770;18.760;2023-04-06T02:18:32;97907.12;;;-5.74;70.55
75513;BME280;64090;49.770;18.760;2023-04-06T02:21:35;97910.80;;;-5.72;70.80
75513;BME280;64090;49.770;18.760;2023-04-06T02:24:38;97912.94;;;-5.65;70.36
75513;BME280;64090;49.770;18.760;2023-04-06T02:27:41;97912.92;;;-5.59;69.68
75513;BME280;64090;49.770;18.760;2023-04-06T02:30:44;97912.91;;;-5.54;70.40
75513;BME280;64090;49.770;18.760;2023-04-06T02:33:47;97917.12;;;-5.53;71.09
75513;BME280;64090;49.770;18.760;2023-04-06T02:36:50;97914.21;;;-5.53;70.87
75513;BME280;64090;49.770;18.760;2023-04-06T02:39:54;97915.39;;;-5.55;70.93
75513;BME280;64090;49.770;18.760;2023-04-06T02:42:57;97915.59;;;-5.58;70.91
75513;BME280;64090;49.770;18.760;2023-04-06T02:46:00;97913.27;;;-5.62;71.32
75513;BME280;64090;49.770;18.760;2023-04-06T02:49:03;97912.15;;;-5.66;71.48
75513;BME280;64090;49.770;18.760;2023-04-06T02:52:06;97913.12;;;-5.71;71.18
75513;BME280;64090;49.770;18.760;2023-04-06T02:55:09;97914.71;;;-5.74;71.08
75513;BME280;64090;49.770;18.760;2023-04-06T02:58:12;97912.86;;;-5.77;71.03
75513;BME280;64090;49.770;18.760;2023-04-06T03:01:15;97914.27;;;-5.80;70.85
75513;BME280;64090;49.770;18.760;2023-04-06T03:04:19;97917.49;;;-5.82;70.97
75513;BME280;64090;49.770;18.760;2023-04-06T03:07:22;97915.11;;;-5.86;70.88
75513;BME280;64090;49.770;18.760;2023-04-06T03:10:25;97916.95;;;-5.87;70.51
75513;BME280;64090;49.770;18.760;2023-04-06T03:13:28;97911.08;;;-5.87;71.12
75513;BME280;64090;49.770;18.760;2023-04-06T03:16:31;97914.13;;;-5.89;71.44
75513;BME280;64090;49.770;18.760;2023-04-06T03:19:34;97920.49;;;-5.92;71.32
75513;BME280;64090;49.770;18.760;2023-04-06T03:22:37;97923.33;;;-5.95;71.41
75513;BME280;64090;49.770;18.760;2023-04-06T03:25:40;97924.91;;;-5.98;71.72
75513;BME280;64090;49.770;18.760;2023-04-06T03:28:43;97927.73;;;-6.01;71.81
75513;BME280;64090;49.770;18.760;2023-04-06T03:31:46;97928.48;;;-6.05;72.25
75513;BME280;64090;49.770;18.760;2023-04-06T03:34:49;97929.94;;;-6.09;71.32
75513;BME280;64090;49.770;18.760;2023-04-06T03:37:52;97930.90;;;-6.11;71.19
75513;BME280;64090;49.770;18.760;2023-04-06T03:40:55;97931.11;;;-6.12;70.70
75513;BME280;64090;49.770;18.760;2023-04-06T03:43:58;97932.23;;;-6.10;70.93
75513;BME280;64090;49.770;18.760;2023-04-06T03:47:01;97933.59;;;-6.09;71.26
75513;BME280;64090;49.770;18.760;2023-04-06T03:50:05;97935.52;;;-6.11;70.57
75513;BME280;64090;49.770;18.760;2023-04-06T03:53:08;97938.29;;;-6.11;71.00
75513;BME280;64090;49.770;18.760;2023-04-06T03:56:11;97938.13;;;-6.11;71.64
75513;BME280;64090;49.770;18.760;2023-04-06T03:59:14;97942.41;;;-6.13;71.87
75513;BME280;64090;49.770;18.760;2023-04-06T04:02:17;97947.23;;;-6.16;72.58
75513;BME280;64090;49.770;18.760;2023-04-06T04:05:21;97945.13;;;-6.18;72.75
75513;BME280;64090;49.770;18.760;2023-04-06T04:08:27;97943.54;;;-6.20;72.50
75513;BME280;64090;49.770;18.760;2023-04-06T04:11:30;97948.29;;;-6.22;72.65
75513;BME280;64090;49.770;18.760;2023-04-06T04:14:33;97946.10;;;-6.23;72.88
75513;BME280;64090;49.770;18.760;2023-04-06T04:17:36;97948.04;;;-6.21;71.98
75513;BME280;64090;49.770;18.760;2023-04-06T04:20:39;97947.06;;;-6.16;71.94
75513;BME280;64090;49.770;18.760;2023-04-06T04:23:42;97953.39;;;-6.10;72.60
75513;BME280;64090;49.770;18.760;2023-04-06T04:26:45;97948.62;;;-6.07;73.09
75513;BME280;64090;49.770;18.760;2023-04-06T04:29:48;97946.16;;;-6.06;73.42
75513;BME280;64090;49.770;18.760;2023-04-06T04:32:54;97949.30;;;-6.07;73.75
75513;BME280;64090;49.770;18.760;2023-04-06T04:35:57;97951.13;;;-6.06;72.83
75513;BME280;64090;49.770;18.760;2023-04-06T04:39:00;97951.23;;;-6.02;73.10
75513;BME280;64090;49.770;18.760;2023-04-06T04:42:04;97947.84;;;-5.98;73.46
75513;BME280;64090;49.770;18.760;2023-04-06T04:45:07;97949.83;;;-5.91;74.14
75513;BME280;64090;49.770;18.760;2023-04-06T04:48:10;97949.14;;;-5.83;73.69
75513;BME280;64090;49.770;18.760;2023-04-06T04:51:15;97950.25;;;-5.74;74.09
75513;BME280;64090;49.770;18.760;2023-04-06T04:54:18;97951.29;;;-5.63;74.00
75513;BME280;64090;49.770;18.760;2023-04-06T04:57:21;97947.60;;;-5.49;72.85
75513;BME280;64090;49.770;18.760;2023-04-06T05:00:25;97953.27;;;-5.32;72.88
75513;BME280;64090;49.770;18.760;2023-04-06T05:03:28;97950.91;;;-5.15;73.17
75513;BME280;64090;49.770;18.760;2023-04-06T05:06:31;97953.33;;;-4.96;74.79
75513;BME280;64090;49.770;18.760;2023-04-06T05:09:34;97955.83;;;-4.77;75.33
75513;BME280;64090;49.770;18.760;2023-04-06T05:12:37;97953.06;;;-4.60;75.69
75513;BME280;64090;49.770;18.760;2023-04-06T05:15:41;97954.25;;;-4.39;75.38
75513;BME280;64090;49.770;18.760;2023-04-06T05:18:44;97952.30;;;-4.18;75.53
75513;BME280;64090;49.770;18.760;2023-04-06T05:21:47;97952.33;;;-3.97;75.41
75513;BME280;64090;49.770;18.760;2023-04-06T05:24:50;97947.13;;;-3.75;75.21
75513;BME280;64090;49.770;18.760;2023-04-06T05:27:53;97943.98;;;-3.55;74.39
75513;BME280;64090;49.770;18.760;2023-04-06T05:30:56;97944.11;;;-3.36;74.42
75513;BME280;64090;49.770;18.760;2023-04-06T05:33:59;97941.40;;;-3.13;74.16
75513;BME280;64090;49.770;18.760;2023-04-06T05:37:02;97939.88;;;-2.88;73.69
75513;BME280;64090;49.770;18.760;2023-04-06T05:40:06;97937.89;;;-2.64;73.51
75513;BME280;64090;49.770;18.760;2023-04-06T05:43:09;97941.75;;;-2.40;72.73
75513;BME280;64090;49.770;18.760;2023-04-06T05:46:12;97943.77;;;-2.17;72.25
75513;BME280;64090;49.770;18.760;2023-04-06T05:49:15;97939.48;;;-1.93;71.41
75513;BME280;64090;49.770;18.760;2023-04-06T05:52:18;97937.73;;;-1.73;71.59
75513;BME280;64090;49.770;18.760;2023-04-06T05:55:21;97939.38;;;-1.49;71.21
75513;BME280;64090;49.770;18.760;2023-04-06T05:58:24;97939.65;;;-1.26;70.89
75513;BME280;64090;49.770;18.760;2023-04-06T06:01:27;97936.52;;;-1.05;70.77
75513;BME280;64090;49.770;18.760;2023-04-06T06:04:31;97938.78;;;-0.84;70.50
75513;BME280;64090;49.770;18.760;2023-04-06T06:07:34;97934.33;;;-0.62;70.29
75513;BME280;64090;49.770;18.760;2023-04-06T06:10:38;97930.98;;;-0.41;69.90
75513;BME280;64090;49.770;18.760;2023-04-06T06:13:41;97928.41;;;-0.21;69.86
75513;BME280;64090;49.770;18.760;2023-04-06T06:16:44;97925.14;;;0.01;69.60
75513;BME280;64090;49.770;18.760;2023-04-06T06:19:47;97923.77;;;0.22;69.14
75513;BME280;64090;49.770;18.760;2023-04-06T06:22:50;97921.38;;;0.47;69.01
75513;BME280;64090;49.770;18.760;2023-04-06T06:25:53;97922.69;;;0.69;68.15
75513;BME280;64090;49.770;18.760;2023-04-06T06:28:56;97920.52;;;0.86;67.67
75513;BME280;64090;49.770;18.760;2023-04-06T06:31:59;97923.17;;;1.02;67.55
75513;BME280;64090;49.770;18.760;2023-04-06T06:35:03;97924.39;;;1.16;67.51
75513;BME280;64090;49.770;18.760;2023-04-06T06:38:06;97926.52;;;1.27;67.31
75513;BME280;64090;49.770;18.760;2023-04-06T06:41:09;97925.73;;;1.37;66.93
75513;BME280;64090;49.770;18.760;2023-04-06T06:44:12;97919.60;;;1.45;66.37
75513;BME280;64090;49.770;18.760;2023-04-06T06:47:14;97921.61;;;1.52;66.05
75513;BME280;64090;49.770;18.760;2023-04-06T06:50:17;97923.98;;;1.65;66.18
75513;BME280;64090;49.770;18.760;2023-04-06T06:53:20;97925.52;;;1.81;65.88
75513;BME280;64090;49.770;18.760;2023-04-06T06:56:23;97925.39;;;1.97;65.80
75513;BME280;64090;49.770;18.760;2023-04-06T06:59:27;97920.70;;;2.15;65.42
75513;BME280;64090;49.770;18.760;2023-04-06T07:02:30;97921.84;;;2.25;64.42
75513;BME280;64090;49.770;18.760;2023-04-06T07:05:33;97920.64;;;2.31;63.44
75513;BME280;64090;49.770;18.760;2023-04-06T07:08:36;97925.97;;;2.32;63.01
75513;BME280;64090;49.770;18.760;2023-04-06T07:11:39;97929.09;;;2.42;63.01
75513;BME280;64090;49.770;18.760;2023-04-06T07:14:42;97926.10;;;2.55;62.16
75513;BME280;64090;49.770;18.760;2023-04-06T07:17:45;97929.66;;;2.61;60.72
75513;BME280;64090;49.770;18.760;2023-04-06T07:20:48;97929.77;;;2.66;60.56
75513;BME280;64090;49.770;18.760;2023-04-06T07:23:51;97931.65;;;2.63;59.94
75513;BME280;64090;49.770;18.760;2023-04-06T07:26:54;97936.59;;;2.62;59.39
75513;BME280;64090;49.770;18.760;2023-04-06T07:29:59;97938.23;;;2.65;58.84
75513;BME280;64090;49.770;18.760;2023-04-06T07:33:02;97939.23;;;2.67;57.84
75513;BME280;64090;49.770;18.760;2023-04-06T07:36:05;97941.30;;;2.64;56.95
75513;BME280;64090;49.770;18.760;2023-04-06T07:39:08;97943.52;;;2.57;57.49
75513;BME280;64090;49.770;18.760;2023-04-06T07:42:12;97948.21;;;2.70;57.16
75513;BME280;64090;49.770;18.760;2023-04-06T07:45:14;97941.27;;;2.82;56.20
75513;BME280;64090;49.770;18.760;2023-04-06T07:48:18;97942.69;;;2.91;55.77
75513;BME280;64090;49.770;18.760;2023-04-06T07:51:21;97936.25;;;2.96;55.34
75513;BME280;64090;49.770;18.760;2023-04-06T07:54:24;97936.05;;;3.17;55.84
75513;BME280;64090;49.770;18.760;2023-04-06T07:57:27;97933.62;;;3.40;54.34
75513;BME280;64090;49.770;18.760;2023-04-06T08:00:30;97931.38;;;3.51;54.18
75513;BME280;64090;49.770;18.760;2023-04-06T08:03:34;97928.60;;;3.72;53.68
75513;BME280;64090;49.770;18.760;2023-04-06T08:06:38;97938.18;;;3.96;53.41
75513;BME280;64090;49.770;18.760;2023-04-06T08:09:41;97938.95;;;4.09;52.01
75513;BME280;64090;49.770;18.760;2023-04-06T08:12:43;97931.92;;;4.20;52.47
75513;BME280;64090;49.770;18.760;2023-04-06T08:15:46;97934.98;;;4.16;50.47
75513;BME280;64090;49.770;18.760;2023-04-06T08:18:49;97932.71;;;4.03;51.22
75513;BME280;64090;49.770;18.760;2023-04-06T08:21:52;97935.21;;;4.02;50.68
75513;BME280;64090;49.770;18.760;2023-04-06T08:24:56;97934.17;;;4.05;51.16
75513;BME280;64090;49.770;18.760;2023-04-06T08:27:58;97930.05;;;4.22;51.04
75513;BME280;64090;49.770;18.760;2023-04-06T08:31:05;97933.84;;;4.38;50.73
75513;BME280;64090;49.770;18.760;2023-04-06T08:34:08;97928.63;;;4.36;48.66
75513;BME280;64090;49.770;18.760;2023-04-06T08:37:15;97931.54;;;4.25;49.91
75513;BME280;64090;49.770;18.760;2023-04-06T08:40:18;97932.50;;;4.07;49.43
75513;BME280;64090;49.770;18.760;2023-04-06T08:43:22;97924.33;;;4.03;49.95
75513;BME280;64090;49.770;18.760;2023-04-06T08:46:26;97919.93;;;4.18;50.37
75513;BME280;64090;49.770;18.760;2023-04-06T08:49:32;97924.73;;;4.40;50.03
75513;BME280;64090;49.770;18.760;2023-04-06T08:52:37;97917.80;;;4.45;49.20
75513;BME280;64090;49.770;18.760;2023-04-06T08:55:42;97914.96;;;4.39;49.77
75513;BME280;64090;49.770;18.760;2023-04-06T08:58:46;97915.40;;;4.30;49.16
75513;BME280;64090;49.770;18.760;2023-04-06T09:01:51;97911.95;;;4.16;49.83
75513;BME280;64090;49.770;18.760;2023-04-06T09:04:55;97913.64;;;4.08;48.35
75513;BME280;64090;49.770;18.760;2023-04-06T09:07:58;97918.48;;;3.94;48.05
75513;BME280;64090;49.770;18.760;2023-04-06T09:11:02;97918.30;;;3.92;48.22
75513;BME280;64090;49.770;18.760;2023-04-06T09:14:05;97916.02;;;4.04;48.15
75513;BME280;64090;49.770;18.760;2023-04-06T09:17:19;97904.55;;;4.23;48.16
75513;BME280;64090;49.770;18.760;2023-04-06T09:20:23;97904.59;;;4.38;48.33
75513;BME280;64090;49.770;18.760;2023-04-06T09:23:29;97906.52;;;4.54;47.27
75513;BME280;64090;49.770;18.760;2023-04-06T09:26:32;97899.06;;;4.57;47.64
75513;BME280;64090;49.770;18.760;2023-04-06T09:29:36;97899.99;;;4.81;47.99
75513;BME280;64090;49.770;18.760;2023-04-06T09:32:47;97898.31;;;5.03;47.98
75513;BME280;64090;49.770;18.760;2023-04-06T09:35:50;97896.54;;;5.33;47.51
75513;BME280;64090;49.770;18.760;2023-04-06T09:38:55;97889.98;;;5.51;46.95
75513;BME280;64090;49.770;18.760;2023-04-06T09:41:58;97893.90;;;5.55;45.68
75513;BME280;64090;49.770;18.760;2023-04-06T09:45:03;97894.70;;;5.28;46.21
75513;BME280;64090;49.770;18.760;2023-04-06T09:48:07;97892.76;;;5.20;46.24
75513;BME280;64090;49.770;18.760;2023-04-06T09:51:11;97891.27;;;5.23;45.57
75513;BME280;64090;49.770;18.760;2023-04-06T09:54:18;97889.45;;;5.14;45.85
75513;BME280;64090;49.770;18.760;2023-04-06T09:57:47;97891.73;;;5.22;45.78
75513;BME280;64090;49.770;18.760;2023-04-06T10:01:01;97887.85;;;5.27;45.20
75513;BME280;64090;49.770;18.760;2023-04-06T10:04:34;97882.63;;;5.08;45.64
75513;BME280;64090;49.770;18.760;2023-04-06T10:07:40;97876.86;;;4.87;46.37
75513;BME280;64090;49.770;18.760;2023-04-06T10:11:01;97881.60;;;4.89;45.79
75513;BME280;64090;49.770;18.760;2023-04-06T10:14:05;97872.67;;;4.89;45.85
75513;BME280;64090;49.770;18.760;2023-04-06T10:17:09;97873.84;;;5.07;45.49
75513;BME280;64090;49.770;18.760;2023-04-06T10:20:20;97877.89;;;5.19;44.71
75513;BME280;64090;49.770;18.760;2023-04-06T10:26:43;97868.98;;;5.43;44.28
75513;BME280;64090;49.770;18.760;2023-04-06T10:29:47;97867.96;;;5.65;43.54
75513;BME280;64090;49.770;18.760;2023-04-06T10:32:53;97860.36;;;5.83;44.41
75513;BME280;64090;49.770;18.760;2023-04-06T10:35:57;97856.01;;;6.00;44.26
75513;BME280;64090;49.770;18.760;2023-04-06T10:39:02;97848.66;;;6.32;44.28
75513;BME280;64090;49.770;18.760;2023-04-06T10:42:06;97846.36;;;6.43;42.90
75513;BME280;64090;49.770;18.760;2023-04-06T10:45:19;97841.08;;;6.36;42.89
75513;BME280;64090;49.770;18.760;2023-04-06T10:48:23;97839.08;;;6.18;42.99
75513;BME280;64090;49.770;18.760;2023-04-06T10:51:28;97840.98;;;6.33;43.45
75513;BME280;64090;49.770;18.760;2023-04-06T10:54:31;97841.00;;;6.55;42.85
75513;BME280;64090;49.770;18.760;2023-04-06T10:57:35;97840.23;;;6.66;42.90
75513;BME280;64090;49.770;18.760;2023-04-06T11:00:47;97837.74;;;6.57;42.55
75513;BME280;64090;49.770;18.760;2023-04-06T11:03:54;97840.94;;;6.54;42.69
75513;BME280;64090;49.770;18.760;2023-04-06T11:06:57;97832.06;;;6.45;42.80
75513;BME280;64090;49.770;18.760;2023-04-06T11:10:00;97835.55;;;6.47;43.24
75513;BME280;64090;49.770;18.760;2023-04-06T11:13:19;97836.77;;;6.27;42.76
75513;BME280;64090;49.770;18.760;2023-04-06T11:16:27;97834.35;;;6.02;44.11
75513;BME280;64090;49.770;18.760;2023-04-06T11:19:31;97834.94;;;5.97;45.12
75513;BME280;64090;49.770;18.760;2023-04-06T11:22:48;97836.37;;;5.82;44.77
75513;BME280;64090;49.770;18.760;2023-04-06T11:25:54;97834.02;;;5.95;45.24
75513;BME280;64090;49.770;18.760;2023-04-06T11:28:56;97828.73;;;6.20;43.97
75513;BME280;64090;49.770;18.760;2023-04-06T11:32:06;97829.71;;;6.32;44.00
75513;BME280;64090;49.770;18.760;2023-04-06T11:35:25;97828.81;;;6.52;43.97
75513;BME280;64090;49.770;18.760;2023-04-06T11:38:29;97822.52;;;6.48;43.56
75513;BME280;64090;49.770;18.760;2023-04-06T11:41:32;97819.83;;;6.38;43.60
75513;BME280;64090;49.770;18.760;2023-04-06T11:44:40;97816.95;;;6.45;43.78
75513;BME280;64090;49.770;18.760;2023-04-06T11:47:45;97816.02;;;6.51;43.88
75513;BME280;64090;49.770;18.760;2023-04-06T11:50:48;97814.48;;;6.31;43.63
75513;BME280;64090;49.770;18.760;2023-04-06T11:53:51;97817.24;;;6.05;43.71
75513;BME280;64090;49.770;18.760;2023-04-06T11:56:54;97816.53;;;5.88;44.15
75513;BME280;64090;49.770;18.760;2023-04-06T11:59:58;97812.77;;;5.81;44.21
75513;BME280;64090;49.770;18.760;2023-04-06T12:03:01;97814.03;;;5.65;44.55
75513;BME280;64090;49.770;18.760;2023-04-06T12:06:04;97811.39;;;5.49;44.03
75513;BME280;64090;49.770;18.760;2023-04-06T12:09:07;97804.52;;;5.41;45.52
75513;BME280;64090;49.770;18.760;2023-04-06T12:12:11;97806.13;;;5.40;44.89
75513;BME280;64090;49.770;18.760;2023-04-06T12:15:14;97797.85;;;5.35;45.38
75513;BME280;64090;49.770;18.760;2023-04-06T12:18:17;97802.36;;;5.21;45.23
75513;BME280;64090;49.770;18.760;2023-04-06T12:21:20;97805.23;;;5.10;45.34
75513;BME280;64090;49.770;18.760;2023-04-06T12:24:23;97812.46;;;5.00;45.88
75513;BME280;64090;49.770;18.760;2023-04-06T12:27:26;97799.30;;;4.85;46.08
75513;BME280;64090;49.770;18.760;2023-04-06T12:30:29;97798.20;;;4.90;46.48
75513;BME280;64090;49.770;18.760;2023-04-06T12:33:32;97796.10;;;4.89;46.85
75513;BME280;64090;49.770;18.760;2023-04-06T12:36:36;97790.55;;;4.77;47.43
75513;BME280;64090;49.770;18.760;2023-04-06T12:39:39;97792.98;;;4.70;48.16
75513;BME280;64090;49.770;18.760;2023-04-06T12:42:43;97796.20;;;4.62;48.14
75513;BME280;64090;49.770;18.760;2023-04-06T12:45:46;97793.23;;;4.64;47.77
75513;BME280;64090;49.770;18.760;2023-04-06T12:48:50;97786.81;;;4.64;48.61
75513;BME280;64090;49.770;18.760;2023-04-06T12:51:56;97785.23;;;4.56;48.51
75513;BME280;64090;49.770;18.760;2023-04-06T12:55:04;97779.48;;;4.64;48.47
75513;BME280;64090;49.770;18.760;2023-04-06T12:58:50;97784.27;;;4.67;48.89
75513;BME280;64090;49.770;18.760;2023-04-06T13:01:53;97788.19;;;4.68;48.50
75513;BME280;64090;49.770;18.760;2023-04-06T13:04:56;97787.41;;;4.56;48.32
75513;BME280;64090;49.770;18.760;2023-04-06T13:07:59;97777.32;;;4.40;48.97
75513;BME280;64090;49.770;18.760;2023-04-06T13:11:02;97783.50;;;4.38;49.50
75513;BME280;64090;49.770;18.760;2023-04-06T13:14:05;97777.73;;;4.20;50.80
75513;BME280;64090;49.770;18.760;2023-04-06T13:17:08;97777.61;;;4.13;51.03
75513;BME280;64090;49.770;18.760;2023-04-06T13:20:12;97774.35;;;4.15;51.30
75513;BME280;64090;49.770;18.760;2023-04-06T13:23:15;97768.04;;;4.20;50.99
75513;BME280;64090;49.770;18.760;2023-04-06T13:26:18;97777.65;;;4.34;50.31
75513;BME280;64090;49.770;18.760;2023-04-06T13:29:22;97776.14;;;4.28;51.22
75513;BME280;64090;49.770;18.760;2023-04-06T13:32:25;97778.73;;;4.22;51.27
75513;BME280;64090;49.770;18.760;2023-04-06T13:35:32;97774.09;;;4.11;51.49
75513;BME280;64090;49.770;18.760;2023-04-06T13:38:35;97769.58;;;4.09;51.41
75513;BME280;64090;49.770;18.760;2023-04-06T13:41:41;97761.52;;;4.09;51.39
75513;BME280;64090;49.770;18.760;2023-04-06T13:44:44;97769.15;;;4.10;52.01
75513;BME280;64090;49.770;18.760;2023-04-06T13:47:49;97774.98;;;3.86;52.89
75513;BME280;64090;49.770;18.760;2023-04-06T13:50:52;97773.73;;;3.60;54.35
75513;BME280;64090;49.770;18.760;2023-04-06T13:53:55;97768.16;;;3.36;55.76
75513;BME280;64090;49.770;18.760;2023-04-06T13:56:58;97773.02;;;3.17;56.38
75513;BME280;64090;49.770;18.760;2023-04-06T14:00:01;97772.21;;;3.06;56.35
75513;BME280;64090;49.770;18.760;2023-04-06T14:03:08;97776.06;;;3.07;57.74
75513;BME280;64090;49.770;18.760;2023-04-06T14:06:12;97769.70;;;3.11;57.55
75513;BME280;64090;49.770;18.760;2023-04-06T14:09:18;97767.85;;;3.13;58.20
75513;BME280;64090;49.770;18.760;2023-04-06T14:12:21;97767.85;;;3.15;58.90
75513;BME280;64090;49.770;18.760;2023-04-06T14:15:25;97774.48;;;3.06;59.31
75513;BME280;64090;49.770;18.760;2023-04-06T14:18:28;97775.13;;;2.98;60.42
75513;BME280;64090;49.770;18.760;2023-04-06T14:21:33;97772.51;;;2.93;61.25
75513;BME280;64090;49.770;18.760;2023-04-06T14:24:36;97767.78;;;2.98;61.68
75513;BME280;64090;49.770;18.760;2023-04-06T14:27:42;97773.45;;;3.05;62.13
75513;BME280;64090;49.770;18.760;2023-04-06T14:30:47;97770.99;;;3.06;62.16
75513;BME280;64090;49.770;18.760;2023-04-06T14:33:54;97765.20;;;3.10;62.07
75513;BME280;64090;49.770;18.760;2023-04-06T14:36:59;97768.91;;;3.15;61.84
75513;BME280;64090;49.770;18.760;2023-04-06T14:40:04;97770.98;;;3.22;61.70
75513;BME280;64090;49.770;18.760;2023-04-06T14:43:07;97769.83;;;3.24;61.51
75513;BME280;64090;49.770;18.760;2023-04-06T14:46:10;97767.92;;;3.24;62.29
75513;BME280;64090;49.770;18.760;2023-04-06T14:49:13;97769.43;;;3.21;62.42
75513;BME280;64090;49.770;18.760;2023-04-06T14:52:19;97775.27;;;3.21;62.22
75513;BME280;64090;49.770;18.760;2023-04-06T14:55:22;97766.14;;;3.24;62.31
75513;BME280;64090;49.770;18.760;2023-04-06T14:58:25;97767.42;;;3.29;62.59
75513;BME280;64090;49.770;18.760;2023-04-06T15:01:28;97764.27;;;3.28;62.65
75513;BME280;64090;49.770;18.760;2023-04-06T15:04:34;97769.98;;;3.14;63.13
75513;BME280;64090;49.770;18.760;2023-04-06T15:07:39;97776.73;;;2.99;63.49
75513;BME280;64090;49.770;18.760;2023-04-06T15:10:42;97776.50;;;2.85;63.94
75513;BME280;64090;49.770;18.760;2023-04-06T15:13:44;97773.55;;;2.71;64.94
75513;BME280;64090;49.770;18.760;2023-04-06T15:16:48;97776.34;;;2.59;65.53
75513;BME280;64090;49.770;18.760;2023-04-06T15:19:51;97778.73;;;2.50;66.71
75513;BME280;64090;49.770;18.760;2023-04-06T15:22:55;97778.83;;;2.37;67.38
75513;BME280;64090;49.770;18.760;2023-04-06T15:25:58;97780.15;;;2.20;68.30
75513;BME280;64090;49.770;18.760;2023-04-06T15:29:02;97778.98;;;2.04;68.26
75513;BME280;64090;49.770;18.760;2023-04-06T15:32:05;97780.14;;;1.90;69.07
75513;BME280;64090;49.770;18.760;2023-04-06T15:35:10;97780.52;;;1.72;69.42
75513;BME280;64090;49.770;18.760;2023-04-06T15:38:13;97784.27;;;1.56;70.32
75513;BME280;64090;49.770;18.760;2023-04-06T15:41:17;97784.45;;;1.43;71.08
75513;BME280;64090;49.770;18.760;2023-04-06T15:44:20;97781.05;;;1.28;72.16
75513;BME280;64090;49.770;18.760;2023-04-06T15:47:23;97785.02;;;1.15;73.01
75513;BME280;64090;49.770;18.760;2023-04-06T15:50:26;97787.33;;;1.01;73.50
75513;BME280;64090;49.770;18.760;2023-04-06T15:53:30;97786.61;;;0.91;73.50
75513;BME280;64090;49.770;18.760;2023-04-06T15:56:34;97789.81;;;0.80;73.73
75513;BME280;64090;49.770;18.760;2023-04-06T15:59:37;97790.24;;;0.72;73.72
75513;BME280;64090;49.770;18.760;2023-04-06T16:02:40;97792.02;;;0.64;74.00
75513;BME280;64090;49.770;18.760;2023-04-06T16:05:43;97794.16;;;0.58;74.11
75513;BME280;64090;49.770;18.760;2023-04-06T16:09:06;97796.96;;;0.54;74.17
75513;BME280;64090;49.770;18.760;2023-04-06T16:12:08;97794.25;;;0.48;74.08